Time;durP1;ratioP1;P1;durP2;ratioP2;P2;SDS_P1;SDS_P2;PMS_P1;PMS_P2;Temp;Humidity;BMP_temperature;BMP_pressure;BME280_temperature;BME280_humidity;BME280_pressure;Samples;Min_cycle;Max_cycle;Signal;HPM_P1;HPM_P2
2022/05/08 00:02:09;;;;;;;;;;;;;;;12.60;nan;99925.88;4969698;28;19977;-84
2022/05/08 00:04:34;;;;;;;;;;;;;;;12.33;nan;99925.94;4967497;28;20068;-83
2022/05/08 00:06:59;;;;;;;;;;;;;;;12.04;nan;99928.66;4968459;28;21721;-84
2022/05/08 00:09:25;;;;;;;;;;;;;;;11.82;nan;99930.97;4967814;28;20001;-83
2022/05/08 00:11:52;;;;;;;;;;;;;;;11.70;nan;99937.84;4972072;28;20038;-85
2022/05/08 00:14:17;;;;;;;;;;;;;;;11.63;nan;99940.00;4966095;28;19980;-84
2022/05/08 00:16:43;;;;;;;;;;;;;;;11.64;nan;99939.09;4965942;28;19969;-84
2022/05/08 00:19:08;;;;;;;;;;;;;;;11.68;nan;99935.31;4967748;28;20522;-85
2022/05/08 00:21:33;;;;;;;;;;;;;;;11.70;nan;99937.84;4969631;28;20489;-85
2022/05/08 00:23:58;;;;;;;;;;;;;;;11.67;nan;99936.25;4979861;28;19968;-84
2022/05/08 00:26:24;;;;;;;;;;;;;;;11.61;nan;99939.28;4970505;28;20453;-85
2022/05/08 00:28:50;;;;;;;;;;;;;;;11.54;nan;99937.13;4969182;28;19980;-85
2022/05/08 00:31:16;;;;;;;;;;;;;;;11.46;nan;99942.84;4965543;28;20112;-85
2022/05/08 00:33:41;;;;;;;;;;;;;;;11.39;nan;99941.53;4970133;28;20063;-83
2022/05/08 00:36:09;;;;;;;;;;;;;;;11.39;nan;99938.91;4970447;28;20060;-84
2022/05/08 00:38:34;;;;;;;;;;;;;;;11.41;nan;99932.59;4971006;28;19976;-84
2022/05/08 00:40:59;;;;;;;;;;;;;;;11.38;nan;99934.59;4968749;28;20482;-85
2022/05/08 00:43:26;;;;;;;;;;;;;;;11.30;nan;99933.28;4979832;28;20075;-84
2022/05/08 00:45:52;;;;;;;;;;;;;;;11.22;nan;99932.91;4968475;28;19969;-85
2022/05/08 00:48:17;;;;;;;;;;;;;;;11.20;nan;99933.94;4971721;28;19972;-85
2022/05/08 00:50:43;;;;;;;;;;;;;;;11.24;nan;99936.28;4964222;28;19984;-84
2022/05/08 00:53:08;;;;;;;;;;;;;;;11.30;nan;99932.44;4965880;28;19969;-85
2022/05/08 00:55:33;;;;;;;;;;;;;;;11.37;nan;99930.25;4972742;28;20017;-85
2022/05/08 00:58:00;;;;;;;;;;;;;;;11.40;nan;99932.72;4972096;28;19950;-84
2022/05/08 01:00:25;;;;;;;;;;;;;;;11.39;nan;99928.38;4970430;28;19964;-84
2022/05/08 01:02:51;;;;;;;;;;;;;;;11.39;nan;99928.38;4966766;28;19991;-84
2022/05/08 01:05:16;;;;;;;;;;;;;;;11.39;nan;99923.13;4967771;28;20019;-83
2022/05/08 01:07:42;;;;;;;;;;;;;;;11.45;nan;99922.72;4961572;28;19961;-83
2022/05/08 01:10:08;;;;;;;;;;;;;;;11.46;nan;99921.81;4963416;28;20083;-84
2022/05/08 01:12:34;;;;;;;;;;;;;;;11.33;nan;99924.34;4962863;28;20020;-83
2022/05/08 01:15:16;;;;;;;;;;;;;;;11.12;nan;99926.50;4962746;28;19965;-84
2022/05/08 01:17:42;;;;;;;;;;;;;;;10.91;nan;99933.06;4962442;28;20062;-85
2022/05/08 01:20:09;;;;;;;;;;;;;;;10.74;nan;99929.66;4963891;28;19928;-84
2022/05/08 01:22:34;;;;;;;;;;;;;;;10.60;nan;99925.22;4962100;28;19972;-83
2022/05/08 01:25:00;;;;;;;;;;;;;;;10.58;nan;99932.31;4966086;28;19964;-83
2022/05/08 01:27:25;;;;;;;;;;;;;;;10.60;nan;99929.63;4965173;28;20438;-84
2022/05/08 01:29:53;;;;;;;;;;;;;;;10.63;nan;99924.19;4983676;28;20063;-84
2022/05/08 01:32:19;;;;;;;;;;;;;;;10.68;nan;99921.28;4973809;28;20052;-84
2022/05/08 01:34:44;;;;;;;;;;;;;;;10.75;nan;99923.47;4969300;28;20100;-84
2022/05/08 01:37:09;;;;;;;;;;;;;;;10.79;nan;99917.09;4976108;28;20666;-83
2022/05/08 01:39:35;;;;;;;;;;;;;;;10.83;nan;99915.97;4969579;28;19965;-84
2022/05/08 01:42:02;;;;;;;;;;;;;;;10.88;nan;99920.94;4986720;28;19969;-85
2022/05/08 01:44:28;;;;;;;;;;;;;;;10.90;nan;99920.84;4990152;28;19965;-84
2022/05/08 01:48:21;;;;;;;;;;;;;;;10.90;nan;99920.84;4973615;28;19968;-83
2022/05/08 01:49:39;;;;;;;;;;;;;;;10.88;nan;99918.31;4972791;28;20027;-83
2022/05/08 01:52:05;;;;;;;;;;;;;;;10.77;nan;99923.38;4979860;28;20470;-84
2022/05/08 01:54:34;;;;;;;;;;;;;;;10.62;nan;99925.13;4989143;28;19972;-83
2022/05/08 01:57:05;;;;;;;;;;;;;;;10.44;nan;99927.03;4990294;28;20068;-84
2022/05/08 01:59:31;;;;;;;;;;;;;;;10.31;nan;99923.44;4968075;28;20079;-84
2022/05/08 02:01:56;;;;;;;;;;;;;;;10.24;nan;99930.78;4988519;28;19980;-84
2022/05/08 02:04:22;;;;;;;;;;;;;;;10.20;nan;99934.50;4980000;28;20343;-84
2022/05/08 02:06:49;;;;;;;;;;;;;;;10.12;nan;99931.47;4977084;28;20404;-84
2022/05/08 02:09:14;;;;;;;;;;;;;;;10.05;nan;99933.63;4978199;28;20687;-83
2022/05/08 02:11:39;;;;;;;;;;;;;;;10.10;nan;99935.94;4979536;28;20023;-84
2022/05/08 02:14:06;;;;;;;;;;;;;;;10.14;nan;99938.31;4973510;28;20028;-84
2022/05/08 02:16:31;;;;;;;;;;;;;;;10.22;nan;99939.69;4975016;28;20076;-85
2022/05/08 02:18:56;;;;;;;;;;;;;;;10.24;nan;99933.41;4993404;28;19981;-84
2022/05/08 02:21:22;;;;;;;;;;;;;;;10.27;nan;99933.28;4975258;28;20435;-84
2022/05/08 02:23:47;;;;;;;;;;;;;;;10.30;nan;99930.47;4973933;28;20680;-84
2022/05/08 02:26:13;;;;;;;;;;;;;;;10.36;nan;99931.88;4978958;28;20055;-85
2022/05/08 02:28:38;;;;;;;;;;;;;;;10.39;nan;99932.53;4973197;28;20043;-85
2022/05/08 02:31:04;;;;;;;;;;;;;;;10.44;nan;99926.19;4973622;28;20015;-85
2022/05/08 02:33:29;;;;;;;;;;;;;;;10.39;nan;99935.16;4974218;28;19993;-85
2022/05/08 02:35:54;;;;;;;;;;;;;;;10.26;nan;99923.69;4993310;28;19968;-84
2022/05/08 02:38:20;;;;;;;;;;;;;;;10.14;nan;99929.63;4972832;28;20489;-85
2022/05/08 02:40:48;;;;;;;;;;;;;;;10.03;nan;99929.38;4974511;28;19961;-85
2022/05/08 02:43:18;;;;;;;;;;;;;;;9.88;nan;99937.19;4972115;28;19965;-85
2022/05/08 02:45:43;;;;;;;;;;;;;;;9.79;nan;99929.81;4973305;28;20233;-84
2022/05/08 02:48:09;;;;;;;;;;;;;;;9.72;nan;99936.31;4974900;28;19965;-84
2022/05/08 02:50:34;;;;;;;;;;;;;;;9.65;nan;99932.34;4972886;28;20642;-85
2022/05/08 02:52:59;;;;;;;;;;;;;;;9.62;nan;99930.75;4973317;28;20016;-84
2022/05/08 03:00:53;;;;;;;;;;;;;;;9.68;nan;99930.41;4977545;28;19934;-84
2022/05/08 03:03:18;;;;;;;;;;;;;;;9.68;nan;99933.00;4977898;28;19983;-83
2022/05/08 03:05:44;;;;;;;;;;;;;;;9.75;nan;99933.53;4971599;28;19969;-84
2022/05/08 03:08:11;;;;;;;;;;;;;;;9.80;nan;99935.88;4987152;28;19968;-84
2022/05/08 03:13:20;;;;;;;;;;;;;;;9.90;nan;99934.47;4975038;28;20286;-83
2022/05/08 03:15:45;;;;;;;;;;;;;;;9.95;nan;99928.03;4972735;28;19945;-84
2022/05/08 03:18:15;;;;;;;;;;;;;;;10.01;nan;99923.38;4972319;28;19942;-84
2022/05/08 03:20:41;;;;;;;;;;;;;;;10.02;nan;99927.66;4970173;28;20388;-84
2022/05/08 03:23:06;;;;;;;;;;;;;;;10.04;nan;99925.81;4975200;28;20010;-84
2022/05/08 03:25:32;;;;;;;;;;;;;;;10.05;nan;99930.16;4973829;28;19945;-84
2022/05/08 03:27:57;;;;;;;;;;;;;;;10.07;nan;99923.00;4966217;28;19965;-84
2022/05/08 03:30:24;;;;;;;;;;;;;;;10.09;nan;99915.91;4969281;28;19965;-84
2022/05/08 03:32:49;;;;;;;;;;;;;;;10.12;nan;99923.59;4975131;28;20423;-84
2022/05/08 03:35:15;;;;;;;;;;;;;;;10.12;nan;99923.59;4978689;28;20033;-84
2022/05/08 03:37:40;;;;;;;;;;;;;;;10.12;nan;99919.19;4978828;28;19972;-84
2022/05/08 03:40:06;;;;;;;;;;;;;;;10.11;nan;99914.88;4979133;28;19976;-84
2022/05/08 03:42:31;;;;;;;;;;;;;;;10.11;nan;99922.75;4973020;28;19976;-84
2022/05/08 03:44:56;;;;;;;;;;;;;;;10.10;nan;99915.81;4997701;28;20036;-84
2022/05/08 03:47:23;;;;;;;;;;;;;;;10.12;nan;99924.44;4989274;28;20063;-84
2022/05/08 03:49:48;;;;;;;;;;;;;;;10.12;nan;99919.19;4984848;28;19967;-83
2022/05/08 03:52:14;;;;;;;;;;;;;;;10.08;nan;99916.84;4987576;28;19962;-85
2022/05/08 03:54:40;;;;;;;;;;;;;;;10.04;nan;99912.69;4996937;28;19987;-84
2022/05/08 03:57:05;;;;;;;;;;;;;;;10.03;nan;99917.09;4996349;28;19960;-83
2022/05/08 03:59:33;;;;;;;;;;;;;;;10.01;nan;99915.50;4989765;28;20003;-83
2022/05/08 04:01:58;;;;;;;;;;;;;;;9.96;nan;99924.47;4975934;28;19981;-84
2022/05/08 04:04:24;;;;;;;;;;;;;;;9.84;nan;99925.16;4976671;28;20085;-83
2022/05/08 04:06:49;;;;;;;;;;;;;;;9.67;nan;99931.34;4978565;28;19952;-83
2022/05/08 04:09:16;;;;;;;;;;;;;;;9.50;nan;99927.00;4975922;28;19939;-84
2022/05/08 04:11:41;;;;;;;;;;;;;;;9.33;nan;99927.06;4978591;28;19973;-83
2022/05/08 04:14:06;;;;;;;;;;;;;;;9.22;nan;99932.03;4994980;28;19971;-83
2022/05/08 04:16:32;;;;;;;;;;;;;;;9.17;nan;99926.19;4994090;28;19988;-84
2022/05/08 04:18:57;;;;;;;;;;;;;;;9.22;nan;99927.63;4991152;28;19988;-84
2022/05/08 04:21:23;;;;;;;;;;;;;;;9.23;nan;99929.31;4976309;28;19980;-82
2022/05/08 04:26:33;;;;;;;;;;;;;;;9.09;nan;99926.56;4972660;28;19968;-83
2022/05/08 04:28:59;;;;;;;;;;;;;;;9.11;nan;99934.38;4966850;28;19987;-84
2022/05/08 04:31:26;;;;;;;;;;;;;;;9.17;nan;99928.81;4968087;28;19989;-84
2022/05/08 04:33:52;;;;;;;;;;;;;;;9.28;nan;99926.44;4969330;28;19988;-83
2022/05/08 04:36:17;;;;;;;;;;;;;;;9.41;nan;99931.91;4973500;28;19975;-84
2022/05/08 04:38:43;;;;;;;;;;;;;;;9.53;nan;99941.72;4970853;28;20019;-84
2022/05/08 04:41:08;;;;;;;;;;;;;;;9.66;nan;99939.28;4969927;28;19968;-83
2022/05/08 04:43:34;;;;;;;;;;;;;;;9.76;nan;99943.09;4969514;28;19968;-85
2022/05/08 04:45:59;;;;;;;;;;;;;;;9.85;nan;99949.59;4967614;28;19965;-83
2022/05/08 04:48:24;;;;;;;;;;;;;;;9.95;nan;99945.56;4968259;28;19973;-83
2022/05/08 04:50:50;;;;;;;;;;;;;;;10.09;nan;99947.41;4968940;28;19984;-84
2022/05/08 04:53:15;;;;;;;;;;;;;;;10.20;nan;99951.09;4969943;28;19968;-83
2022/05/08 04:55:40;;;;;;;;;;;;;;;10.41;nan;99948.22;4970992;28;19965;-83
2022/05/08 04:58:06;;;;;;;;;;;;;;;10.78;nan;99943.47;4968733;28;19969;-84
2022/05/08 05:00:31;;;;;;;;;;;;;;;11.21;nan;99940.91;4969505;28;19972;-84
2022/05/08 05:02:56;;;;;;;;;;;;;;;11.58;nan;99946.50;4967126;28;20021;-84
2022/05/08 05:05:22;;;;;;;;;;;;;;;11.79;nan;99946.94;4968528;28;19971;-84
2022/05/08 05:07:47;;;;;;;;;;;;;;;11.85;nan;99946.53;4982515;28;20174;-83
2022/05/08 05:10:13;;;;;;;;;;;;;;;11.99;nan;99943.94;4962094;28;19981;-83
2022/05/08 05:12:42;;;;;;;;;;;;;;;12.30;nan;99953.31;4970990;28;19962;-84
2022/05/08 05:15:08;;;;;;;;;;;;;;;12.52;nan;99946.63;4974665;28;19980;-84
2022/05/08 05:17:33;;;;;;;;;;;;;;;12.82;nan;99951.63;4968568;28;19927;-85
2022/05/08 05:19:59;;;;;;;;;;;;;;;13.19;nan;99941.22;4971225;28;19975;-84
2022/05/08 05:22:24;;;;;;;;;;;;;;;13.56;nan;99951.91;4970354;28;19938;-84
2022/05/08 05:24:50;;;;;;;;;;;;;;;13.87;nan;99955.81;4968803;28;19968;-83
2022/05/08 05:27:15;;;;;;;;;;;;;;;14.08;nan;99956.06;4971478;28;20073;-84
2022/05/08 05:30:16;;;;;;;;;;;;;;;14.26;nan;99961.81;4966146;28;20028;-84
2022/05/08 05:32:42;;;;;;;;;;;;;;;14.45;nan;99956.03;4940692;28;20318;-84
2022/05/08 05:35:10;;;;;;;;;;;;;;;14.70;nan;99942.69;4963016;28;20866;-84
2022/05/08 05:37:36;;;;;;;;;;;;;;;14.63;nan;99957.31;4966172;28;20559;-84
2022/05/08 05:40:01;;;;;;;;;;;;;;;14.28;nan;99954.59;4966275;28;19944;-84
2022/05/08 05:42:27;;;;;;;;;;;;;;;13.89;nan;99961.84;4982389;28;20065;-84
2022/05/08 05:44:52;;;;;;;;;;;;;;;13.66;nan;99964.34;4971650;28;19967;-84
2022/05/08 05:50:02;;;;;;;;;;;;;;;13.13;nan;99966.22;4968050;28;19951;-83
2022/05/08 05:52:30;;;;;;;;;;;;;;;13.03;nan;99971.28;4971445;28;20404;-83
2022/05/08 05:54:55;;;;;;;;;;;;;;;12.91;nan;99969.50;4984019;28;19942;-83
2022/05/08 05:57:21;;;;;;;;;;;;;;;12.87;nan;99965.34;4968052;28;20022;-85
2022/05/08 05:59:46;;;;;;;;;;;;;;;12.89;nan;99968.75;4967134;28;19928;-84
2022/05/08 06:02:12;;;;;;;;;;;;;;;13.02;nan;99968.75;4976922;28;19987;-86
2022/05/08 06:04:38;;;;;;;;;;;;;;;13.44;nan;99967.59;4971542;28;19940;-86
2022/05/08 06:07:03;;;;;;;;;;;;;;;13.89;nan;99967.13;4973934;28;19928;-85
2022/05/08 06:09:28;;;;;;;;;;;;;;;14.26;nan;99964.47;4974873;28;20809;-85
2022/05/08 06:11:54;;;;;;;;;;;;;;;14.75;nan;99972.25;4971557;28;19976;-86
2022/05/08 06:14:19;;;;;;;;;;;;;;;15.02;nan;99969.31;4966607;28;20842;-86
2022/05/08 06:16:45;;;;;;;;;;;;;;;15.23;nan;99972.13;4973669;28;19995;-85
2022/05/08 06:19:12;;;;;;;;;;;;;;;15.53;nan;99965.41;4979420;28;19926;-85
2022/05/08 06:21:38;;;;;;;;;;;;;;;15.95;nan;99978.03;4984316;28;19939;-86
2022/05/08 06:24:03;;;;;;;;;;;;;;;16.42;nan;99971.53;4985749;28;19914;-86
2022/05/08 06:26:29;;;;;;;;;;;;;;;16.93;nan;99964.69;4982584;28;19974;-85
2022/05/08 06:28:55;;;;;;;;;;;;;;;17.42;nan;99971.97;4979853;28;20283;-85
2022/05/08 06:31:21;;;;;;;;;;;;;;;17.68;nan;99968.84;4985460;28;20403;-85
2022/05/08 06:33:47;;;;;;;;;;;;;;;17.86;nan;99964.59;4971446;28;19991;-85
2022/05/08 06:36:12;;;;;;;;;;;;;;;17.74;nan;99970.13;4976241;28;20325;-85
2022/05/08 06:38:37;;;;;;;;;;;;;;;17.33;nan;99969.25;4972111;28;19928;-86
2022/05/08 06:41:03;;;;;;;;;;;;;;;17.32;nan;99971.06;4970793;28;19928;-85
2022/05/08 06:43:28;;;;;;;;;;;;;;;17.36;nan;99972.50;4974654;28;19959;-85
2022/05/08 06:45:53;;;;;;;;;;;;;;;17.50;nan;99963.34;4969539;28;20335;-87
2022/05/08 06:48:19;;;;;;;;;;;;;;;17.93;nan;99964.94;4969121;28;20365;-85
2022/05/08 06:50:44;;;;;;;;;;;;;;;18.07;nan;99974.31;4969680;28;19948;-86
2022/05/08 06:53:09;;;;;;;;;;;;;;;18.32;nan;99971.13;4972824;28;20360;-85
2022/05/08 06:55:37;;;;;;;;;;;;;;;18.67;nan;99971.56;4974838;28;19984;-85
2022/05/08 06:58:03;;;;;;;;;;;;;;;19.08;nan;99972.25;4972653;28;19979;-86
2022/05/08 07:03:15;;;;;;;;;;;;;;;19.67;nan;99963.94;4970399;28;20000;-86
2022/05/08 07:05:47;;;;;;;;;;;;;;;19.75;nan;99965.03;4968652;28;19986;-86
2022/05/08 07:08:13;;;;;;;;;;;;;;;20.05;nan;99970.06;4972965;28;19979;-84
2022/05/08 07:10:38;;;;;;;;;;;;;;;20.43;nan;99967.28;4972480;28;19978;-86
2022/05/08 07:13:03;;;;;;;;;;;;;;;20.72;nan;99964.41;4986581;28;19931;-86
2022/05/08 07:15:29;;;;;;;;;;;;;;;20.87;nan;99970.00;4973411;28;19969;-85
2022/05/08 07:17:57;;;;;;;;;;;;;;;21.05;nan;99960.13;4993696;28;19965;-85
2022/05/08 07:20:26;;;;;;;;;;;;;;;21.06;nan;99961.81;4977276;28;19996;-85
2022/05/08 07:22:51;;;;;;;;;;;;;;;21.25;nan;99962.59;4978091;28;19961;-84
2022/05/08 07:25:16;;;;;;;;;;;;;;;21.39;nan;99957.53;4975150;28;19932;-85
2022/05/08 07:27:46;;;;;;;;;;;;;;;21.55;nan;99953.25;4970461;28;19951;-86
2022/05/08 07:30:11;;;;;;;;;;;;;;;21.53;nan;99963.28;4975394;28;19991;-86
2022/05/08 07:32:37;;;;;;;;;;;;;;;21.29;nan;99956.78;4976764;28;19972;-86
2022/05/08 07:37:47;;;;;;;;;;;;;;;21.18;nan;99960.56;4986967;28;20228;-86
2022/05/08 07:40:16;;;;;;;;;;;;;;;21.29;nan;99962.13;5007212;28;20489;-85
2022/05/08 07:42:42;;;;;;;;;;;;;;;21.49;nan;99960.09;4986451;28;19971;-85
2022/05/08 07:45:08;;;;;;;;;;;;;;;21.60;nan;99959.81;4976937;28;19965;-85
2022/05/08 07:47:33;;;;;;;;;;;;;;;21.76;nan;99956.34;4985349;28;20028;-87
2022/05/08 07:49:59;;;;;;;;;;;;;;;21.88;nan;99962.28;4972099;28;19973;-85
2022/05/08 07:52:26;;;;;;;;;;;;;;;22.14;nan;99961.31;4974918;28;20015;-86
2022/05/08 07:54:56;;;;;;;;;;;;;;;22.34;nan;99961.91;4971812;28;20054;-86
2022/05/08 07:57:22;;;;;;;;;;;;;;;22.44;nan;99951.88;4989145;28;19962;-85
2022/05/08 07:59:48;;;;;;;;;;;;;;;22.62;nan;99957.91;4970647;28;21055;-84
2022/05/08 08:02:13;;;;;;;;;;;;;;;22.72;nan;99961.25;4970186;28;19991;-86
2022/05/08 08:04:39;;;;;;;;;;;;;;;22.65;nan;99960.25;4972605;28;19997;-85
2022/05/08 08:07:04;;;;;;;;;;;;;;;22.62;nan;99955.22;4970788;28;20000;-86
2022/05/08 08:09:29;;;;;;;;;;;;;;;22.46;nan;99955.22;4965421;28;20000;-87
2022/05/08 08:11:55;;;;;;;;;;;;;;;22.48;nan;99961.25;4969222;28;19993;-86
2022/05/08 08:14:21;;;;;;;;;;;;;;;22.78;nan;99958.94;4973544;28;20020;-85
2022/05/08 08:16:46;;;;;;;;;;;;;;;22.97;nan;99951.41;4972363;28;19974;-86
2022/05/08 08:19:12;;;;;;;;;;;;;;;22.92;nan;99951.03;4972497;28;20354;-85
2022/05/08 08:21:37;;;;;;;;;;;;;;;22.85;nan;99957.25;4973261;28;20027;-86
2022/05/08 08:24:03;;;;;;;;;;;;;;;22.99;nan;99961.97;4970778;28;20000;-87
2022/05/08 08:26:28;;;;;;;;;;;;;;;23.19;nan;99952.53;4976045;28;19969;-86
2022/05/08 08:28:54;;;;;;;;;;;;;;;23.26;nan;99957.22;4984782;28;19965;-86
2022/05/08 08:31:19;;;;;;;;;;;;;;;23.32;nan;99956.53;4975636;28;19992;-85
2022/05/08 08:33:45;;;;;;;;;;;;;;;23.11;nan;99949.88;4976255;28;20084;-85
2022/05/08 08:36:13;;;;;;;;;;;;;;;23.01;nan;99954.59;4995522;28;19992;-87
2022/05/08 08:38:38;;;;;;;;;;;;;;;22.95;nan;99948.03;4979406;28;19969;-87
2022/05/08 08:41:05;;;;;;;;;;;;;;;22.91;nan;99951.22;4980552;28;19976;-84
2022/05/08 08:47:42;;;;;;;;;;;;;;;22.83;nan;99951.22;4975737;28;19964;-85
2022/05/08 08:49:17;;;;;;;;;;;;;;;22.58;nan;99945.88;4975204;28;20011;-86
2022/05/08 08:51:44;;;;;;;;;;;;;;;22.66;nan;99947.72;4974169;28;20080;-84
2022/05/08 08:54:09;;;;;;;;;;;;;;;22.57;nan;99944.19;4969888;28;19974;-86
2022/05/08 08:56:35;;;;;;;;;;;;;;;22.57;nan;99938.00;4974782;28;19950;-84
2022/05/08 08:59:00;;;;;;;;;;;;;;;22.62;nan;99944.53;4972155;28;20151;-85
2022/05/08 09:01:25;;;;;;;;;;;;;;;22.72;nan;99939.84;4972204;28;21022;-85
2022/05/08 09:03:55;;;;;;;;;;;;;;;22.74;nan;99940.53;4974977;28;19973;-85
2022/05/08 09:06:23;;;;;;;;;;;;;;;22.70;nan;99938.34;4984338;28;19951;-85
2022/05/08 09:08:48;;;;;;;;;;;;;;;22.81;nan;99934.47;4980114;28;19956;-85
2022/05/08 09:11:31;;;;;;;;;;;;;;;22.86;nan;99948.22;4976990;28;19997;-84
2022/05/08 09:13:59;;;;;;;;;;;;;;;22.85;nan;99936.66;4982203;28;19980;-86
2022/05/08 09:16:29;;;;;;;;;;;;;;;22.94;nan;99935.63;4991146;28;19947;-85
2022/05/08 09:19:04;;;;;;;;;;;;;;;23.08;nan;99934.13;4987455;28;20465;-86
2022/05/08 09:24:14;;;;;;;;;;;;;;;23.05;nan;99929.13;4980608;28;19985;-83
2022/05/08 09:26:40;;;;;;;;;;;;;;;23.10;nan;99924.09;4978760;28;19958;-86
2022/05/08 09:29:05;;;;;;;;;;;;;;;23.20;nan;99921.22;4976886;28;19962;-86
2022/05/08 09:31:40;;;;;;;;;;;;;;;23.31;nan;99925.38;4978148;28;20014;-85
2022/05/08 09:34:06;;;;;;;;;;;;;;;23.48;nan;99918.94;4968358;28;20004;-86
2022/05/08 09:36:31;;;;;;;;;;;;;;;23.52;nan;99909.56;4966662;28;19969;-85
2022/05/08 09:38:56;;;;;;;;;;;;;;;23.49;nan;99909.88;4985196;28;20690;-86
2022/05/08 09:41:28;;;;;;;;;;;;;;;23.53;nan;99908.53;4966842;28;19980;-86
2022/05/08 09:43:55;;;;;;;;;;;;;;;23.61;nan;99903.13;4987499;28;19976;-85
2022/05/08 09:46:24;;;;;;;;;;;;;;;23.66;nan;99912.53;4966282;28;19988;-85
2022/05/08 09:48:50;;;;;;;;;;;;;;;23.67;nan;99900.78;4988649;28;19972;-84
2022/05/08 09:51:16;;;;;;;;;;;;;;;23.88;nan;99908.25;4969361;28;20000;-86
2022/05/08 09:53:42;;;;;;;;;;;;;;;23.80;nan;99914.47;4977187;28;20076;-86
2022/05/08 09:56:21;;;;;;;;;;;;;;;23.57;nan;99909.88;4970793;28;19965;-84
2022/05/08 09:58:47;;;;;;;;;;;;;;;23.39;nan;99909.28;4966556;28;19973;-85
2022/05/08 10:01:13;;;;;;;;;;;;;;;23.25;nan;99915.34;4967241;28;19968;-86
2022/05/08 10:03:39;;;;;;;;;;;;;;;23.35;nan;99905.25;4977991;28;19995;-86
2022/05/08 10:06:04;;;;;;;;;;;;;;;23.47;nan;99913.78;4974663;28;20059;-84
2022/05/08 10:08:33;;;;;;;;;;;;;;;23.36;nan;99905.09;4975982;28;19975;-86
2022/05/08 10:13:53;;;;;;;;;;;;;;;23.17;nan;99900.13;4973137;28;19969;-86
2022/05/08 10:16:38;;;;;;;;;;;;;;;23.24;nan;99901.09;4974809;28;19969;-85
2022/05/08 10:19:22;;;;;;;;;;;;;;;23.58;nan;99902.66;4971828;28;20027;-85
2022/05/08 10:21:55;;;;;;;;;;;;;;;23.75;nan;99895.41;4976908;28;19964;-85
2022/05/08 10:24:34;;;;;;;;;;;;;;;23.82;nan;99891.00;4978868;28;19968;-85
2022/05/08 10:27:16;;;;;;;;;;;;;;;23.84;nan;99897.88;4974937;28;20671;-86
2022/05/08 10:29:48;;;;;;;;;;;;;;;24.04;nan;99898.25;4982455;28;19969;-85
2022/05/08 10:32:33;;;;;;;;;;;;;;;24.30;nan;99886.28;4991193;28;19968;-84
2022/05/08 10:35:12;;;;;;;;;;;;;;;24.49;nan;99890.38;4983508;28;19961;-86
2022/05/08 10:37:46;;;;;;;;;;;;;;;24.35;nan;99897.34;4986991;28;19936;-84
2022/05/08 10:40:23;;;;;;;;;;;;;;;24.26;nan;99895.75;4992113;28;19923;-86
2022/05/08 10:42:55;;;;;;;;;;;;;;;24.44;nan;99899.00;4997142;28;19927;-85
2022/05/08 10:45:33;;;;;;;;;;;;;;;24.50;nan;99890.19;4997106;28;19998;-83
2022/05/08 10:47:59;;;;;;;;;;;;;;;24.42;nan;99892.94;5000021;28;19927;-85
2022/05/08 10:50:25;;;;;;;;;;;;;;;24.31;nan;99889.84;4977003;28;20282;-85
2022/05/08 10:52:51;;;;;;;;;;;;;;;24.33;nan;99883.28;4982543;28;19935;-87
2022/05/08 10:55:20;;;;;;;;;;;;;;;24.33;nan;99874.38;4981835;28;19935;-85
2022/05/08 10:57:47;;;;;;;;;;;;;;;24.32;nan;99883.44;4983082;28;19973;-85
2022/05/08 11:00:41;;;;;;;;;;;;;;;24.40;nan;99876.16;4984332;28;20523;-86
2022/05/08 11:03:06;;;;;;;;;;;;;;;24.49;nan;99887.69;4982134;28;20026;-84
2022/05/08 11:05:33;;;;;;;;;;;;;;;24.56;nan;99879.75;4997305;28;20038;-85
2022/05/08 11:08:00;;;;;;;;;;;;;;;24.33;nan;99874.38;4993323;28;20007;-84
2022/05/08 11:10:27;;;;;;;;;;;;;;;24.25;nan;99888.72;4981282;28;19955;-85
2022/05/08 11:12:59;;;;;;;;;;;;;;;24.13;nan;99885.59;4962772;28;19932;-85
2022/05/08 11:15:25;;;;;;;;;;;;;;;24.08;nan;99879.91;4965147;28;19935;-85
2022/05/08 11:18:02;;;;;;;;;;;;;;;23.87;nan;99887.78;4964177;28;19937;-84
2022/05/08 11:20:28;;;;;;;;;;;;;;;23.57;nan;99885.75;4965947;28;19967;-84
2022/05/08 11:22:56;;;;;;;;;;;;;;;23.45;nan;99889.81;4966452;28;20025;-85
2022/05/08 11:25:21;;;;;;;;;;;;;;;23.49;nan;99890.28;4971515;28;19952;-85
2022/05/08 11:27:51;;;;;;;;;;;;;;;23.55;nan;99892.28;4965365;28;19939;-86
2022/05/08 11:30:25;;;;;;;;;;;;;;;23.48;nan;99896.66;4965692;28;19949;-83
2022/05/08 11:38:22;;;;;;;;;;;;;;;23.36;nan;99882.81;4969069;28;19946;-85
2022/05/08 11:40:48;;;;;;;;;;;;;;;23.17;nan;99882.22;4967857;28;20038;-86
2022/05/08 11:43:32;;;;;;;;;;;;;;;23.02;nan;99881.25;4966218;28;20035;-85
2022/05/08 11:46:00;;;;;;;;;;;;;;;22.95;nan;99888.25;4965176;28;19945;-84
2022/05/08 11:48:40;;;;;;;;;;;;;;;22.86;nan;99894.63;4963598;28;19945;-84
2022/05/08 11:51:09;;;;;;;;;;;;;;;22.74;nan;99888.81;4966087;28;20047;-86
2022/05/08 11:53:38;;;;;;;;;;;;;;;22.65;nan;99882.59;4965502;28;20373;-84
2022/05/08 11:56:27;;;;;;;;;;;;;;;22.70;nan;99888.28;4969413;28;20186;-84
2022/05/08 11:58:56;;;;;;;;;;;;;;;22.69;nan;99885.78;4965146;28;19938;-86
2022/05/08 12:01:23;;;;;;;;;;;;;;;22.69;nan;99891.16;4958277;28;20409;-85
2022/05/08 12:03:48;;;;;;;;;;;;;;;22.70;nan;99882.09;4983962;28;19962;-84
2022/05/08 12:06:14;;;;;;;;;;;;;;;22.53;nan;99883.97;4965910;28;20045;-83
2022/05/08 12:08:39;;;;;;;;;;;;;;;22.51;nan;99889.47;4966957;28;19931;-84
2022/05/08 12:11:05;;;;;;;;;;;;;;;22.54;nan;99874.91;4969520;28;20025;-86
2022/05/08 12:13:34;;;;;;;;;;;;;;;22.60;nan;99882.28;4963181;28;19931;-86
2022/05/08 12:16:17;;;;;;;;;;;;;;;22.62;nan;99882.13;4964283;28;19935;-84
2022/05/08 12:19:02;;;;;;;;;;;;;;;22.68;nan;99876.94;4966115;28;19967;-83
2022/05/08 12:21:28;;;;;;;;;;;;;;;22.67;nan;99877.91;4966677;28;19928;-84
2022/05/08 12:23:53;;;;;;;;;;;;;;;22.67;nan;99879.75;4970970;28;19940;-84
2022/05/08 12:26:19;;;;;;;;;;;;;;;22.63;nan;99887.31;4966882;28;19932;-85
2022/05/08 12:28:45;;;;;;;;;;;;;;;22.54;nan;99890.97;4966631;28;19975;-84
2022/05/08 12:31:11;;;;;;;;;;;;;;;22.40;nan;99892.50;4956899;28;19955;-84
2022/05/08 12:33:36;;;;;;;;;;;;;;;22.44;nan;99892.97;4962591;28;19995;-85
2022/05/08 12:36:01;;;;;;;;;;;;;;;22.44;nan;99899.19;4970582;28;20361;-85
2022/05/08 12:38:27;;;;;;;;;;;;;;;22.32;nan;99897.84;4964369;28;19942;-85
2022/05/08 12:40:52;;;;;;;;;;;;;;;22.23;nan;99902.34;4966904;28;19935;-83
2022/05/08 12:43:17;;;;;;;;;;;;;;;22.13;nan;99896.28;4969388;28;19951;-83
2022/05/08 12:45:43;;;;;;;;;;;;;;;21.99;nan;99895.09;4967400;28;20055;-86
2022/05/08 12:48:08;;;;;;;;;;;;;;;21.83;nan;99898.56;4964054;28;20521;-85
2022/05/08 12:50:34;;;;;;;;;;;;;;;21.76;nan;99900.22;4970424;28;19962;-85
2022/05/08 12:52:59;;;;;;;;;;;;;;;21.78;nan;99895.53;4966317;28;19933;-86
2022/05/08 12:55:24;;;;;;;;;;;;;;;21.78;nan;99906.25;4963262;28;20657;-85
2022/05/08 13:00:33;;;;;;;;;;;;;;;21.82;nan;99906.78;4964377;28;19928;-84
2022/05/08 13:03:00;;;;;;;;;;;;;;;21.82;nan;99910.28;4964463;28;19951;-84
2022/05/08 13:05:26;;;;;;;;;;;;;;;21.74;nan;99902.22;4964452;28;19961;-84
2022/05/08 13:07:51;;;;;;;;;;;;;;;21.71;nan;99902.56;4965236;28;19956;-85
2022/05/08 13:10:16;;;;;;;;;;;;;;;21.70;nan;99902.72;4964847;28;19960;-85
2022/05/08 13:12:42;;;;;;;;;;;;;;;21.67;nan;99906.53;4969983;28;19969;-86
2022/05/08 13:15:13;;;;;;;;;;;;;;;21.64;nan;99901.53;4974736;28;19956;-84
2022/05/08 13:17:38;;;;;;;;;;;;;;;21.61;nan;99905.34;4979115;28;19983;-84
2022/05/08 13:20:06;;;;;;;;;;;;;;;21.65;nan;99908.53;4982486;28;19958;-85
2022/05/08 13:22:32;;;;;;;;;;;;;;;21.65;nan;99906.69;4965441;28;19964;-86
2022/05/08 13:24:59;;;;;;;;;;;;;;;21.62;nan;99903.50;4968613;28;20074;-84
2022/05/08 13:27:25;;;;;;;;;;;;;;;21.57;nan;99898.63;4967291;28;20405;-84
2022/05/08 13:29:50;;;;;;;;;;;;;;;21.59;nan;99903.84;4962465;28;19956;-84
2022/05/08 13:32:15;;;;;;;;;;;;;;;21.58;nan;99900.34;4960461;28;20005;-85
2022/05/08 13:34:41;;;;;;;;;;;;;;;21.59;nan;99909.19;4959167;28;19977;-85
2022/05/08 13:37:08;;;;;;;;;;;;;;;21.59;nan;99899.31;4958338;28;20027;-86
2022/05/08 13:39:34;;;;;;;;;;;;;;;21.51;nan;99901.97;4957510;28;19959;-85
2022/05/08 13:42:00;;;;;;;;;;;;;;;21.54;nan;99904.31;4963473;28;19954;-84
2022/05/08 13:44:25;;;;;;;;;;;;;;;21.50;nan;99894.97;4974761;28;19960;-85